Time;durP1;ratioP1;P1;durP2;ratioP2;P2;SDS_P1;SDS_P2;PMS_P1;PMS_P2;Temp;Humidity;BMP_temperature;BMP_pressure;BME280_temperature;BME280_humidity;BME280_pressure;Samples;Min_cycle;Max_cycle;Signal;HPM_P1;HPM_P2
2021/07/17 00:00:24;;;;;;;35.70;14.52;;;;;;;12.99;100.00;102015.69;5082587;28;20044;-65
2021/07/17 00:02:52;;;;;;;41.58;16.00;;;;;;;13.13;100.00;102018.88;5090296;28;20044;-65
2021/07/17 00:05:20;;;;;;;41.75;15.18;;;;;;;13.07;100.00;102015.78;5085657;28;20067;-65
2021/07/17 00:07:49;;;;;;;35.15;15.70;;;;;;;13.00;100.00;102012.03;5085497;28;20055;-65
2021/07/17 00:10:19;;;;;;;39.40;15.65;;;;;;;12.92;100.00;102010.06;5084328;28;20452;-65
2021/07/17 00:12:48;;;;;;;43.83;15.77;;;;;;;12.90;100.00;102006.72;5085134;28;20043;-65
2021/07/17 00:15:21;;;;;;;37.78;16.27;;;;;;;13.03;100.00;102013.56;5087490;28;20434;-65
2021/07/17 00:17:49;;;;;;;35.75;14.70;;;;;;;13.04;100.00;102010.72;5087775;28;20040;-65
2021/07/17 00:20:17;;;;;;;33.97;16.02;;;;;;;12.95;100.00;102013.47;5085496;28;20318;-66
2021/07/17 00:22:45;;;;;;;41.55;16.27;;;;;;;13.02;100.00;102015.38;5086127;28;20044;-65
2021/07/17 00:25:16;;;;;;;38.30;16.08;;;;;;;12.92;100.00;102014.59;5086247;28;20048;-65
2021/07/17 00:27:45;;;;;;;42.92;16.00;;;;;;;12.94;100.00;102017.13;5083723;28;20070;-66
2021/07/17 00:30:16;;;;;;;49.75;18.35;;;;;;;12.98;100.00;102016.69;5079282;28;20051;-66
2021/07/17 00:32:44;;;;;;;46.88;16.55;;;;;;;12.99;100.00;102010.31;5085663;28;20048;-65
2021/07/17 00:35:12;;;;;;;34.42;14.55;;;;;;;12.93;100.00;102013.63;5089671;28;20047;-65
2021/07/17 00:37:41;;;;;;;40.92;18.13;;;;;;;12.86;100.00;102016.03;5088046;28;20435;-65
2021/07/17 00:40:10;;;;;;;30.20;15.73;;;;;;;13.05;100.00;102014.25;5087493;28;20036;-65
2021/07/17 00:42:41;;;;;;;38.63;15.40;;;;;;;12.95;100.00;102016.97;5078181;28;20094;-65
2021/07/17 00:45:11;;;;;;;41.83;16.10;;;;;;;12.80;100.00;102010.44;5086664;28;20044;-65
2021/07/17 00:47:40;;;;;;;34.17;16.05;;;;;;;12.75;100.00;102013.56;5086168;28;20063;-65
2021/07/17 00:50:11;;;;;;;38.97;15.25;;;;;;;12.71;100.00;102013.00;5084718;28;20456;-67
2021/07/17 00:52:39;;;;;;;48.00;17.85;;;;;;;12.64;100.00;102014.59;5088613;28;20059;-66
2021/07/17 00:55:09;;;;;;;52.85;19.08;;;;;;;12.67;100.00;102006.28;5084578;28;20064;-65
2021/07/17 00:57:38;;;;;;;43.17;19.10;;;;;;;12.69;100.00;102015.00;5090747;28;20044;-66
2021/07/17 01:00:10;;;;;;;41.28;18.80;;;;;;;12.66;100.00;102020.66;5081191;28;20060;-66
2021/07/17 01:02:40;;;;;;;45.80;19.63;;;;;;;12.60;100.00;102018.53;5083954;28;20501;-65
2021/07/17 01:05:09;;;;;;;38.33;16.30;;;;;;;12.64;100.00;102021.78;5086616;28;20402;-67
2021/07/17 01:07:37;;;;;;;46.28;18.77;;;;;;;12.68;100.00;102020.50;5080911;28;20040;-67
2021/07/17 01:10:07;;;;;;;45.42;18.35;;;;;;;12.69;100.00;102025.72;5087465;28;20062;-67
2021/07/17 01:12:35;;;;;;;40.78;19.15;;;;;;;12.65;100.00;102018.13;5083889;28;20086;-67
2021/07/17 01:15:04;;;;;;;49.15;20.75;;;;;;;12.61;100.00;102017.56;5086080;28;20502;-67
2021/07/17 01:17:32;;;;;;;51.17;19.90;;;;;;;12.66;100.00;102012.63;5085187;28;20039;-67
2021/07/17 01:20:02;;;;;;;53.97;19.85;;;;;;;12.67;100.00;102017.00;5082533;28;20066;-67
2021/07/17 01:22:32;;;;;;;51.58;21.27;;;;;;;12.52;100.00;102019.28;5088629;28;20048;-67
2021/07/17 01:25:00;;;;;;;47.13;19.45;;;;;;;12.53;100.00;102023.66;5085194;28;20379;-67
2021/07/17 01:27:28;;;;;;;44.00;18.25;;;;;;;12.66;100.00;102014.44;5087573;28;20093;-68
2021/07/17 01:29:56;;;;;;;49.80;19.35;;;;;;;12.63;100.00;102020.97;5090206;28;20431;-67
2021/07/17 01:32:24;;;;;;;51.35;18.75;;;;;;;12.60;100.00;102017.72;5078764;28;20402;-67
2021/07/17 01:34:52;;;;;;;54.58;20.92;;;;;;;12.62;100.00;102021.94;5087245;28;20092;-67
2021/07/17 01:37:20;;;;;;;51.03;19.30;;;;;;;12.55;100.00;102023.53;5086772;28;20040;-66
2021/07/17 01:39:49;;;;;;;47.85;19.35;;;;;;;12.60;100.00;102031.13;5080839;28;20048;-67
2021/07/17 01:42:17;;;;;;;45.58;20.65;;;;;;;12.55;100.00;102026.19;5088647;28;20052;-67
2021/07/17 01:44:46;;;;;;;53.63;21.60;;;;;;;12.60;100.00;102026.59;5082419;28;20039;-67
2021/07/17 01:47:15;;;;;;;60.15;21.95;;;;;;;12.54;100.00;102032.53;5088242;28;20048;-67
2021/07/17 01:49:43;;;;;;;50.13;21.20;;;;;;;12.50;100.00;102031.16;5082588;28;20064;-67
2021/07/17 01:52:11;;;;;;;57.67;23.50;;;;;;;12.55;100.00;102029.72;5087490;28;20109;-66
2021/07/17 01:54:39;;;;;;;60.75;20.27;;;;;;;12.51;100.00;102027.47;5084518;28;20062;-67
2021/07/17 01:57:09;;;;;;;55.92;22.88;;;;;;;12.59;100.00;102027.59;5081301;28;20044;-67
2021/07/17 01:59:38;;;;;;;61.42;23.88;;;;;;;12.46;100.00;102029.75;5081511;28;20085;-67
2021/07/17 02:02:07;;;;;;;62.22;23.83;;;;;;;12.44;100.00;102016.50;5082968;28;20401;-67
2021/07/17 02:04:35;;;;;;;58.67;21.50;;;;;;;12.42;100.00;102017.63;5085829;28;20044;-66
2021/07/17 02:07:04;;;;;;;62.22;24.30;;;;;;;12.52;100.00;102018.47;5086502;28;20040;-67
2021/07/17 02:09:32;;;;;;;50.90;21.30;;;;;;;12.59;100.00;102008.84;5087387;28;20385;-67
2021/07/17 02:12:00;;;;;;;60.83;23.50;;;;;;;12.65;100.00;102015.44;5090673;28;20040;-67
2021/07/17 02:14:36;;;;;;;51.55;20.98;;;;;;;12.60;100.00;102004.31;5089472;28;20410;-66
2021/07/17 02:17:05;;;;;;;53.80;24.02;;;;;;;12.61;100.00;102006.00;5092572;28;20044;-68
2021/07/17 02:19:33;;;;;;;63.78;22.15;;;;;;;12.52;100.00;102002.38;5085401;28;20113;-67
2021/07/17 02:22:01;;;;;;;52.80;20.42;;;;;;;12.54;100.00;102008.44;5090339;28;20040;-68
2021/07/17 02:24:30;;;;;;;59.67;24.10;;;;;;;12.44;100.00;102004.94;5089854;28;20491;-67
2021/07/17 02:26:58;;;;;;;67.53;23.25;;;;;;;12.48;100.00;101999.13;5086118;28;20097;-67
2021/07/17 02:29:26;;;;;;;59.20;21.85;;;;;;;12.48;100.00;101995.63;5086825;28;20037;-67
2021/07/17 02:31:55;;;;;;;57.45;24.05;;;;;;;12.47;100.00;102000.13;5090486;28;20044;-67
2021/07/17 02:34:24;;;;;;;56.30;21.67;;;;;;;12.49;100.00;101997.28;5092881;28;20048;-68
2021/07/17 02:36:52;;;;;;;67.13;22.65;;;;;;;12.27;100.00;101994.00;5093167;28;20367;-68
2021/07/17 02:39:20;;;;;;;54.70;22.20;;;;;;;12.37;100.00;102000.16;5086266;28;20040;-67
2021/07/17 02:41:48;;;;;;;55.03;21.83;;;;;;;12.48;100.00;101995.63;5088550;28;20052;-67
2021/07/17 02:44:16;;;;;;;69.07;22.98;;;;;;;12.40;100.00;101999.88;5087601;28;20094;-67
2021/07/17 02:46:44;;;;;;;54.78;21.23;;;;;;;12.47;100.00;101997.44;5090198;28;20051;-67
2021/07/17 02:49:15;;;;;;;54.78;21.50;;;;;;;12.52;100.00;101986.31;5093035;28;20052;-67
2021/07/17 02:51:43;;;;;;;56.25;21.90;;;;;;;12.31;100.00;101995.41;5085326;28;20344;-67
2021/07/17 02:54:10;;;;;;;68.30;24.55;;;;;;;12.29;100.00;101992.03;5094717;28;20097;-68
2021/07/17 02:56:39;;;;;;;68.30;24.38;;;;;;;12.26;100.00;101992.28;5094330;28;20040;-65
2021/07/17 02:59:06;;;;;;;77.25;25.17;;;;;;;12.20;100.00;101995.56;5093282;28;20055;-66
2021/07/17 03:01:34;;;;;;;71.70;23.73;;;;;;;12.09;100.00;101990.38;5090750;28;20410;-66
2021/07/17 03:04:03;;;;;;;74.55;28.02;;;;;;;12.26;100.00;101989.63;5091215;28;20459;-68
2021/07/17 03:06:32;;;;;;;73.93;25.98;;;;;;;12.29;100.00;102001.88;5092029;28;20067;-67
2021/07/17 03:09:03;;;;;;;65.65;25.55;;;;;;;12.19;100.00;101993.88;5087499;28;20419;-68
2021/07/17 03:11:32;;;;;;;71.70;25.27;;;;;;;12.12;100.00;101985.59;5087359;28;20075;-68
2021/07/17 03:14:00;;;;;;;64.00;25.60;;;;;;;12.21;100.00;101990.06;5091384;28;20032;-68
2021/07/17 03:16:29;;;;;;;71.95;25.08;;;;;;;12.24;100.00;101994.28;5092176;28;20040;-66
2021/07/17 03:18:59;;;;;;;71.40;25.45;;;;;;;12.31;100.00;101998.06;5093231;28;20048;-68
2021/07/17 03:21:27;;;;;;;65.07;26.05;;;;;;;12.33;100.00;101997.94;5092441;28;20044;-69
2021/07/17 03:23:56;;;;;;;70.03;25.50;;;;;;;12.35;100.00;101999.47;5088244;28;20101;-68
2021/07/17 03:26:24;;;;;;;66.82;27.83;;;;;;;12.48;100.00;101999.13;5089350;28;20052;-69
2021/07/17 03:28:52;;;;;;;63.05;26.10;;;;;;;12.54;100.00;102001.22;5085904;28;20059;-68
2021/07/17 03:31:26;;;;;;;80.60;28.27;;;;;;;12.61;100.00;101998.81;5089654;28;20048;-68
2021/07/17 03:33:54;;;;;;;72.18;25.90;;;;;;;12.66;100.00;102001.91;5082800;28;20070;-68
2021/07/17 03:36:22;;;;;;;61.22;26.40;;;;;;;12.67;100.00;101992.00;5087927;28;20097;-68
2021/07/17 03:38:50;;;;;;;68.45;26.80;;;;;;;12.68;100.00;101999.91;5087876;28;20387;-67
2021/07/17 03:41:20;;;;;;;65.20;26.15;;;;;;;12.71;100.00;101999.59;5083464;28;20090;-68
2021/07/17 03:43:48;;;;;;;64.10;26.85;;;;;;;12.80;100.00;102005.94;5086649;28;20523;-67
2021/07/17 03:46:16;;;;;;;60.83;26.10;;;;;;;12.83;100.00;102004.75;5085176;28;20097;-69
2021/07/17 03:48:44;;;;;;;63.30;26.67;;;;;;;12.84;100.00;102001.97;5085905;28;20348;-70
2021/07/17 03:51:12;;;;;;;72.28;29.27;;;;;;;12.87;100.00;102001.66;5088417;28;20051;-68
2021/07/17 03:53:40;;;;;;;73.65;29.63;;;;;;;12.88;100.00;102003.31;5086979;28;20059;-68
2021/07/17 03:56:08;;;;;;;67.32;26.75;;;;;;;12.87;100.00;102003.47;5090504;28;20047;-68
2021/07/17 03:58:38;;;;;;;70.15;27.27;;;;;;;13.00;100.00;102003.97;5084239;28;20044;-68
2021/07/17 04:01:06;;;;;;;62.60;25.73;;;;;;;13.08;100.00;102008.56;5088586;28;20101;-68
2021/07/17 04:03:34;;;;;;;63.45;27.05;;;;;;;13.11;100.00;102010.13;5086244;28;20055;-68
2021/07/17 04:06:02;;;;;;;59.85;25.10;;;;;;;13.13;100.00;102008.16;5084991;28;20131;-68
2021/07/17 04:08:30;;;;;;;62.22;25.73;;;;;;;13.14;100.00;102002.63;5091520;28;20040;-69
2021/07/17 04:10:59;;;;;;;73.15;27.85;;;;;;;13.15;100.00;102011.50;5086321;28;20066;-68
2021/07/17 04:13:27;;;;;;;70.30;26.23;;;;;;;13.17;100.00;102017.56;5089658;28;20037;-69
2021/07/17 04:15:56;;;;;;;59.58;25.80;;;;;;;13.17;100.00;102009.50;5087189;28;20093;-68
2021/07/17 04:18:24;;;;;;;66.03;26.38;;;;;;;13.17;100.00;102017.56;5084621;28;20047;-68
2021/07/17 04:20:52;;;;;;;71.95;28.00;;;;;;;13.17;100.00;102005.00;5085886;28;20427;-68
2021/07/17 04:23:20;;;;;;;62.47;25.60;;;;;;;13.27;100.00;102007.63;5081297;28;20041;-69
2021/07/17 04:25:48;;;;;;;62.70;25.60;;;;;;;13.24;100.00;102013.28;5088543;28;20048;-69
2021/07/17 04:28:16;;;;;;;66.78;27.40;;;;;;;13.25;100.00;102012.28;5088512;28;20048;-68
2021/07/17 04:30:44;;;;;;;59.20;25.75;;;;;;;13.29;100.00;102011.00;5087536;28;20048;-68
2021/07/17 04:33:13;;;;;;;66.93;25.00;;;;;;;13.34;100.00;102010.53;5088320;28;20126;-67
2021/07/17 04:35:42;;;;;;;62.47;25.50;;;;;;;13.39;100.00;102010.94;5089550;28;20048;-65
2021/07/17 04:38:10;;;;;;;60.38;25.50;;;;;;;13.45;100.00;102015.69;5090605;28;20040;-69
2021/07/17 04:40:38;;;;;;;59.85;25.13;;;;;;;13.46;100.00;102019.25;5087895;28;20102;-68
2021/07/17 04:43:06;;;;;;;67.18;25.40;;;;;;;13.43;100.00;102018.53;5085748;28;20066;-67
2021/07/17 04:45:34;;;;;;;68.47;27.08;;;;;;;13.43;100.00;102017.69;5084253;28;20047;-67
2021/07/17 04:48:04;;;;;;;63.30;24.85;;;;;;;13.50;100.00;102009.88;5084078;28;20093;-68
2021/07/17 04:50:33;;;;;;;58.70;22.70;;;;;;;13.63;100.00;102015.69;5087728;28;20043;-67
2021/07/17 04:53:01;;;;;;;62.85;26.52;;;;;;;13.56;100.00;102020.84;5085268;28;20040;-68
2021/07/17 04:55:29;;;;;;;54.50;23.85;;;;;;;13.65;100.00;102015.53;5087690;28;20032;-65
2021/07/17 04:58:00;;;;;;;59.95;23.52;;;;;;;13.68;100.00;102024.16;5084809;28;20047;-65
2021/07/17 05:00:28;;;;;;;78.03;27.65;;;;;;;13.65;100.00;102019.09;5082619;28;20044;-66
2021/07/17 05:02:57;;;;;;;53.20;24.40;;;;;;;13.62;100.00;102016.69;5089768;28;20334;-65
2021/07/17 05:05:26;;;;;;;64.07;25.08;;;;;;;13.65;100.00;102012.84;5086867;28;20417;-67
2021/07/17 05:07:55;;;;;;;55.47;23.48;;;;;;;13.81;100.00;102017.53;5089413;28;20097;-65
2021/07/17 05:10:25;;;;;;;62.08;25.60;;;;;;;13.77;100.00;102012.47;5086973;28;20063;-67
2021/07/17 05:12:53;;;;;;;62.38;24.52;;;;;;;13.78;100.00;102011.47;5082210;28;20048;-67
2021/07/17 05:15:21;;;;;;;56.20;23.38;;;;;;;13.88;100.00;102015.94;5086424;28;20048;-67
2021/07/17 05:17:49;;;;;;;57.80;24.58;;;;;;;14.00;100.00;102011.97;5087232;28;20047;-67
2021/07/17 05:20:18;;;;;;;50.75;23.27;;;;;;;14.00;100.00;102017.34;5083878;28;20032;-67
2021/07/17 05:22:46;;;;;;;50.25;22.13;;;;;;;14.02;100.00;102012.66;5086132;28;20081;-67
2021/07/17 05:25:16;;;;;;;47.75;20.83;;;;;;;14.11;100.00;102017.09;5082800;28;20048;-66
2021/07/17 05:27:43;;;;;;;47.08;22.08;;;;;;;14.23;100.00;102019.50;5086072;28;20327;-67
2021/07/17 05:30:12;;;;;;;51.17;20.90;;;;;;;14.28;100.00;102019.88;5082684;28;20036;-67
2021/07/17 05:32:40;;;;;;;44.40;20.98;;;;;;;14.41;100.00;102022.97;5086178;28;20036;-67
2021/07/17 05:35:09;;;;;;;48.60;19.67;;;;;;;14.49;100.00;102029.41;5084338;28;20040;-67
2021/07/17 05:37:37;;;;;;;46.72;22.88;;;;;;;14.26;100.00;102032.63;5081930;28;20110;-67
2021/07/17 05:40:06;;;;;;;41.30;19.88;;;;;;;14.43;100.00;102028.19;5083835;28;20052;-67
2021/07/17 05:42:35;;;;;;;49.45;20.48;;;;;;;14.41;100.00;102033.72;5086532;28;20055;-67
2021/07/17 05:45:04;;;;;;;50.15;19.30;;;;;;;14.53;100.00;102033.47;5089470;28;20044;-65
2021/07/17 05:47:32;;;;;;;54.30;20.17;;;;;;;14.54;100.00;102033.28;5085804;28;20043;-67
2021/07/17 05:50:00;;;;;;;41.55;19.17;;;;;;;14.56;100.00;102042.06;5085774;28;20044;-67
2021/07/17 05:52:28;;;;;;;37.35;19.42;;;;;;;14.66;100.00;102036.59;5086230;28;20082;-66
2021/07/17 05:54:56;;;;;;;37.75;18.65;;;;;;;14.77;100.00;102043.53;5080739;28;20048;-67
2021/07/17 05:57:24;;;;;;;38.05;17.50;;;;;;;14.80;100.00;102044.06;5089436;28;20093;-66
2021/07/17 05:59:53;;;;;;;36.58;17.52;;;;;;;14.86;100.00;102039.06;5084695;28;20040;-66
2021/07/17 06:02:21;;;;;;;34.67;18.10;;;;;;;14.96;100.00;102037.06;5087415;28;20071;-66
2021/07/17 06:04:49;;;;;;;45.15;18.70;;;;;;;15.04;100.00;102045.16;5081693;28;20447;-66
2021/07/17 06:07:17;;;;;;;42.22;18.65;;;;;;;15.00;100.00;102049.19;5084756;28;20063;-66
2021/07/17 06:09:45;;;;;;;38.33;15.93;;;;;;;15.14;100.00;102045.88;5084622;28;20045;-66
2021/07/17 06:12:13;;;;;;;36.20;17.52;;;;;;;15.17;100.00;102038.47;5082847;28;20044;-65
2021/07/17 06:14:41;;;;;;;33.25;15.70;;;;;;;15.44;100.00;102042.75;5084991;28;20041;-65
2021/07/17 06:17:12;;;;;;;32.03;15.77;;;;;;;15.58;100.00;102039.41;5085019;28;20048;-66
2021/07/17 06:19:40;;;;;;;39.63;16.83;;;;;;;15.66;100.00;102041.25;5082246;28;20174;-66
2021/07/17 06:22:08;;;;;;;28.63;14.85;;;;;;;15.91;100.00;102035.91;5085649;28;20032;-66
2021/07/17 06:24:37;;;;;;;33.58;14.68;;;;;;;15.77;100.00;102034.69;5084507;28;20048;-65
2021/07/17 06:27:05;;;;;;;39.78;15.52;;;;;;;15.96;100.00;102044.31;5085540;28;20044;-66
2021/07/17 06:29:33;;;;;;;38.42;15.00;;;;;;;16.17;100.00;102043.78;5082898;28;20289;-65
2021/07/17 06:32:01;;;;;;;32.75;13.68;;;;;;;16.34;100.00;102042.78;5083029;28;20043;-66
2021/07/17 06:34:31;;;;;;;32.83;14.52;;;;;;;16.42;100.00;102050.00;5085041;28;20097;-66
2021/07/17 06:36:59;;;;;;;26.35;13.50;;;;;;;16.39;100.00;102047.66;5087015;28;20048;-65
2021/07/17 06:39:27;;;;;;;27.83;13.93;;;;;;;16.81;100.00;102038.41;5084649;28;20048;-65
2021/07/17 06:41:55;;;;;;;26.25;13.30;;;;;;;17.15;100.00;102037.28;5085434;28;20040;-65
2021/07/17 06:44:24;;;;;;;25.67;12.75;;;;;;;17.58;100.00;102028.72;5084321;28;20327;-66
2021/07/17 06:46:52;;;;;;;27.08;14.70;;;;;;;16.93;100.00;102049.69;5080437;28;20032;-65
2021/07/17 06:49:20;;;;;;;27.30;13.57;;;;;;;17.06;100.00;102049.13;5082799;28;20062;-65
2021/07/17 06:51:49;;;;;;;22.40;13.68;;;;;;;17.03;100.00;102052.19;5084990;28;20265;-65
2021/07/17 06:54:17;;;;;;;26.80;13.43;;;;;;;17.08;100.00;102051.63;5083033;28;20055;-66
2021/07/17 06:56:45;;;;;;;32.90;14.40;;;;;;;17.20;100.00;102059.16;5086969;28;20044;-66
2021/07/17 06:59:13;;;;;;;34.55;12.82;;;;;;;17.58;100.00;102061.13;5093786;28;20049;-65
2021/07/17 07:01:41;;;;;;;29.38;13.48;;;;;;;17.85;100.00;102061.63;5088300;28;20124;-66
2021/07/17 07:04:10;;;;;;;33.92;14.15;;;;;;;17.89;100.00;102066.47;5086652;28;20048;-66
2021/07/17 07:06:38;;;;;;;27.27;12.30;;;;;;;18.50;100.00;102057.50;5091738;28;20051;-65
2021/07/17 07:09:07;;;;;;;25.88;11.80;;;;;;;18.60;100.00;102059.91;5091950;28;20040;-66
2021/07/17 07:11:39;;;;;;;24.67;12.57;;;;;;;18.14;100.00;102058.16;5090468;28;20040;-66
2021/07/17 07:14:08;;;;;;;20.60;11.20;;;;;;;19.19;100.00;102058.19;5091071;28;20382;-66
2021/07/17 07:16:36;;;;;;;26.52;12.57;;;;;;;18.22;100.00;102052.69;5090176;28;20051;-66
2021/07/17 07:19:05;;;;;;;27.20;13.07;;;;;;;18.90;100.00;102062.63;5088828;28;20063;-64
2021/07/17 07:21:33;;;;;;;28.60;12.30;;;;;;;19.50;100.00;102054.38;5089077;28;20190;-64
2021/07/17 07:24:01;;;;;;;23.92;12.23;;;;;;;19.48;100.00;102057.28;5083448;28;20065;-65
2021/07/17 07:26:30;;;;;;;25.13;10.75;;;;;;;19.66;100.00;102059.56;5091917;28;20450;-66
2021/07/17 07:28:58;;;;;;;26.17;12.43;;;;;;;20.06;100.00;102068.06;5085115;28;20071;-65
2021/07/17 07:31:28;;;;;;;22.75;10.25;;;;;;;21.27;100.00;102066.88;5086928;28;20044;-66
2021/07/17 07:33:56;;;;;;;22.05;10.07;;;;;;;20.89;100.00;102064.63;5087939;28;20593;-66
2021/07/17 07:36:24;;;;;;;23.63;11.88;;;;;;;20.27;100.00;102060.91;5086408;28;20051;-66
2021/07/17 07:38:52;;;;;;;29.13;12.18;;;;;;;19.82;100.00;102068.44;5087004;28;20044;-66
2021/07/17 07:41:20;;;;;;;26.55;13.07;;;;;;;20.08;100.00;102076.81;5085410;28;20455;-65
2021/07/17 07:43:49;;;;;;;25.13;12.32;;;;;;;22.17;100.00;102072.03;5086901;28;20040;-64
2021/07/17 07:46:17;;;;;;;24.98;12.27;;;;;;;21.09;100.00;102070.19;5089767;28;20044;-65
2021/07/17 07:48:45;;;;;;;23.73;13.15;;;;;;;21.17;100.00;102069.16;5084594;28;20040;-66
2021/07/17 07:51:14;;;;;;;29.80;13.18;;;;;;;21.94;100.00;102056.13;5087804;28;20089;-65
2021/07/17 07:53:42;;;;;;;23.98;14.93;;;;;;;21.43;100.00;102065.66;5084644;28;20043;-65
2021/07/17 07:56:10;;;;;;;20.02;11.90;;;;;;;22.14;100.00;102066.16;5086758;28;20047;-65
2021/07/17 07:58:39;;;;;;;21.80;11.75;;;;;;;23.89;100.00;102056.28;5088439;28;20369;-65
2021/07/17 08:01:08;;;;;;;28.15;12.38;;;;;;;20.27;100.00;102061.75;5087336;28;20048;-65
2021/07/17 08:03:36;;;;;;;26.40;13.77;;;;;;;19.74;100.00;102066.69;5085100;28;20052;-65
2021/07/17 08:06:05;;;;;;;28.23;12.75;;;;;;;20.84;100.00;102063.56;5085737;28;20048;-65
2021/07/17 08:08:33;;;;;;;20.88;12.00;;;;;;;21.50;100.00;102058.38;5087170;28;20056;-66
2021/07/17 08:11:01;;;;;;;20.88;11.20;;;;;;;21.23;100.00;102049.31;5083966;28;20434;-65
2021/07/17 08:13:29;;;;;;;19.58;11.75;;;;;;;20.78;100.00;102057.06;5084520;28;20058;-66
2021/07/17 08:16:01;;;;;;;20.95;11.85;;;;;;;21.76;100.00;102054.06;5087433;28;20466;-65
2021/07/17 08:18:31;;;;;;;18.35;11.82;;;;;;;21.91;100.00;102040.25;5084029;28;20474;-65
2021/07/17 08:20:59;;;;;;;23.42;12.07;;;;;;;19.43;100.00;102059.72;5084432;28;20052;-65
2021/07/17 08:23:27;;;;;;;25.52;12.48;;;;;;;19.82;100.00;102053.06;5085924;28;20051;-65
2021/07/17 08:25:54;;;;;;;24.73;15.15;;;;;;;20.55;100.00;102052.75;5085951;28;20048;-65
2021/07/17 08:28:22;;;;;;;24.00;14.00;;;;;;;19.43;100.00;102059.72;5085129;28;20032;-65
2021/07/17 08:30:50;;;;;;;29.67;13.50;;;;;;;21.12;100.00;102058.03;5084355;28;20165;-65
2021/07/17 08:33:18;;;;;;;29.63;13.55;;;;;;;21.38;100.00;102059.16;5084410;28;20051;-66
2021/07/17 08:35:48;;;;;;;18.83;13.05;;;;;;;20.56;100.00;102054.41;5086407;28;20093;-65
2021/07/17 08:38:16;;;;;;;19.27;11.80;;;;;;;22.08;100.00;102047.97;5084435;28;20085;-65
2021/07/17 08:40:51;;;;;;;23.73;11.98;;;;;;;20.03;100.00;102060.31;5081937;28;20044;-65
2021/07/17 08:43:19;;;;;;;17.15;10.30;;;;;;;21.78;100.00;102051.13;5082505;28;20452;-65
2021/07/17 08:45:47;;;;;;;23.23;12.15;;;;;;;21.74;100.00;102056.13;5079211;28;20052;-65
2021/07/17 08:48:16;;;;;;;21.80;10.80;;;;;;;22.49;100.00;102047.72;5087818;28;20036;-65
2021/07/17 08:50:44;;;;;;;22.00;10.93;;;;;;;21.95;100.00;102049.66;5080991;28;20325;-65
2021/07/17 08:53:16;;;;;;;25.30;11.13;;;;;;;21.79;100.00;102052.81;5081384;28;20063;-66
2021/07/17 08:55:45;;;;;;;25.17;10.13;;;;;;;24.00;100.00;102050.13;5085701;28;20039;-65
2021/07/17 08:58:13;;;;;;;21.58;10.55;;;;;;;21.50;100.00;102055.66;5083543;28;20098;-66
2021/07/17 09:00:42;;;;;;;23.73;12.25;;;;;;;20.47;100.00;102055.63;5087576;28;20378;-65
2021/07/17 09:03:13;;;;;;;23.85;11.68;;;;;;;21.99;100.00;102060.97;5083489;28;20595;-66
2021/07/17 09:05:45;;;;;;;18.23;10.48;;;;;;;21.75;100.00;102057.81;5083443;28;20352;-66
2021/07/17 09:08:16;;;;;;;18.33;8.95;;;;;;;23.32;100.00;102057.06;5088402;28;20188;-66
2021/07/17 09:10:45;;;;;;;24.42;10.80;;;;;;;21.91;100.00;102050.28;5083525;28;20424;-66
2021/07/17 09:13:19;;;;;;;16.55;9.40;;;;;;;23.31;100.00;102060.03;5088432;28;20036;-65
2021/07/17 09:16:02;;;;;;;23.53;10.47;;;;;;;22.73;100.00;102050.00;5083048;28;20052;-66
2021/07/17 09:18:34;;;;;;;22.25;10.15;;;;;;;22.16;100.00;102045.88;5083186;28;20870;-65
2021/07/17 09:21:05;;;;;;;22.63;10.63;;;;;;;21.62;100.00;102047.75;5083760;28;20040;-65
2021/07/17 09:23:36;;;;;;;18.00;8.93;;;;;;;24.01;100.00;102053.66;5088174;28;20048;-65
2021/07/17 09:26:19;;;;;;;17.20;9.57;;;;;;;23.95;100.00;102047.22;5085180;28;20047;-65
2021/07/17 09:29:01;;;;;;;19.73;10.27;;;;;;;22.94;100.00;102055.13;5085882;28;20324;-66
2021/07/17 09:31:31;;;;;;;23.17;10.40;;;;;;;21.58;100.00;102057.38;5079637;28;20455;-65
2021/07/17 09:34:05;;;;;;;19.95;10.32;;;;;;;22.54;100.00;102049.84;5082035;28;20141;-66
2021/07/17 09:36:36;;;;;;;18.58;9.77;;;;;;;23.80;100.00;102038.50;5085989;28;20043;-66
2021/07/17 09:39:15;;;;;;;15.85;9.20;;;;;;;24.12;100.00;102039.28;5084527;28;20102;-65
2021/07/17 09:41:53;;;;;;;19.08;8.63;;;;;;;24.49;100.00;102050.25;5083923;28;20044;-65
2021/07/17 09:44:23;;;;;;;14.45;8.32;;;;;;;25.29;100.00;102042.13;5085232;28;20040;-66
2021/07/17 09:46:51;;;;;;;20.08;10.02;;;;;;;22.44;100.00;102055.72;5085958;28;20044;-66
2021/07/17 09:49:20;;;;;;;23.58;9.10;;;;;;;23.69;100.00;102049.06;5087279;28;20107;-65
2021/07/17 09:51:48;;;;;;;18.80;9.70;;;;;;;22.11;100.00;102040.22;5084887;28;20048;-65
2021/07/17 09:54:18;;;;;;;22.63;10.23;;;;;;;24.48;100.00;102045.00;5088898;28;20051;-66
2021/07/17 09:56:46;;;;;;;17.55;9.07;;;;;;;23.08;100.00;102044.16;5081895;28;20339;-64
2021/07/17 09:59:16;;;;;;;20.40;9.57;;;;;;;21.51;100.00;102048.34;5084092;28;20039;-65
2021/07/17 10:01:44;;;;;;;19.75;8.20;;;;;;;23.82;100.00;102045.41;5083002;28;20062;-65
2021/07/17 10:04:16;;;;;;;14.65;8.07;;;;;;;24.23;100.00;102041.28;5083822;28;20044;-65
2021/07/17 10:06:45;;;;;;;13.65;7.10;;;;;;;25.23;100.00;102039.28;5085896;28;20059;-64
2021/07/17 10:09:30;;;;;;;15.32;8.48;;;;;;;22.70;100.00;102043.06;5083764;28;20331;-64
2021/07/17 10:12:01;;;;;;;19.40;7.97;;;;;;;24.92;100.00;102037.59;5083713;28;20048;-64
2021/07/17 10:14:33;;;;;;;17.95;7.10;;;;;;;24.83;100.00;102038.97;5083491;28;20052;-64
2021/07/17 10:17:05;;;;;;;13.77;6.95;;;;;;;25.38;100.00;102040.78;5085506;28;20040;-65
2021/07/17 10:19:34;;;;;;;14.65;6.35;;;;;;;25.29;100.00;102039.41;5084533;28;20051;-64
2021/07/17 10:22:03;;;;;;;13.65;6.60;;;;;;;25.89;100.00;102033.03;5082386;28;20052;-64
2021/07/17 10:24:32;;;;;;;13.88;6.82;;;;;;;25.43;100.00;102033.56;5081953;28;20068;-64
2021/07/17 10:27:01;;;;;;;16.45;7.03;;;;;;;24.20;100.00;102036.28;5086382;28;20428;-64
2021/07/17 10:29:29;;;;;;;15.27;6.13;;;;;;;25.58;100.00;102033.09;5086954;28;20047;-64
2021/07/17 10:31:59;;;;;;;13.63;6.15;;;;;;;24.70;100.00;102037.25;5086976;28;20056;-64
2021/07/17 10:34:28;;;;;;;16.08;6.88;;;;;;;24.70;100.00;102031.78;5086341;28;20147;-64
2021/07/17 10:37:01;;;;;;;17.35;6.47;;;;;;;25.13;100.00;102032.69;5088911;28;20324;-64
2021/07/17 10:39:33;;;;;;;14.80;6.20;;;;;;;26.34;100.00;102027.00;5090056;28;20089;-64
2021/07/17 10:42:07;;;;;;;13.80;6.72;;;;;;;26.96;100.00;102023.63;5091378;28;20044;-64
2021/07/17 10:44:39;;;;;;;15.82;8.10;;;;;;;23.55;100.00;102025.69;5092750;28;20044;-65
2021/07/17 10:47:08;;;;;;;13.75;6.60;;;;;;;24.54;100.00;102027.75;5091965;28;20051;-65
2021/07/17 10:49:37;;;;;;;16.48;6.70;;;;;;;24.31;100.00;102034.72;5088703;28;20032;-65
2021/07/17 10:52:05;;;;;;;17.50;7.60;;;;;;;24.28;100.00;102024.22;5086371;28;20051;-65
2021/07/17 10:54:35;;;;;;;14.07;5.40;;;;;;;25.34;100.00;102026.75;5088171;28;20125;-65
2021/07/17 10:57:04;;;;;;;17.52;6.95;;;;;;;26.16;100.00;102021.66;5089136;28;20137;-65
2021/07/17 10:59:48;;;;;;;16.73;6.70;;;;;;;25.69;100.00;102020.53;5088587;28;20097;-65
2021/07/17 11:02:25;;;;;;;10.57;5.72;;;;;;;26.59;100.00;102012.97;5091604;28;20044;-65
2021/07/17 11:05:01;;;;;;;12.98;5.53;;;;;;;27.46;100.00;102016.63;5088982;28;20043;-64
2021/07/17 11:07:34;;;;;;;13.27;5.32;;;;;;;26.99;100.00;102016.81;5084716;28;20075;-64
2021/07/17 11:10:25;;;;;;;18.63;5.65;;;;;;;26.56;100.00;102013.47;5089342;28;20464;-64